Wayne, NE

12:33 PM CST on February 20, 2017 (GMT -0600)
Wayne Municipal | | Change Station

Elev 1430 ft 42.24 °N, 96.98 °W | Updated 18 minutes ago

Overcast
Overcast
59 °F
Feels Like 59 °F
N
10
Wind Variable Wind from WSW

Today
High -- | Low -- °F
--% Chance of Precip.
Yesterday
High -- | Low -- °F
Precip. -- in
Pressure 29.70 in
Visibility 10.0 miles
Clouds Scattered Clouds 1900 ft
Mostly Cloudy 3500 ft
Overcast 11000 ft
Dew Point 54 °F
Humidity 83%
Rainfall 0.00 in
Snow Depth Not available.
7:16 AM 6:07 PM
Waning Crescent, 32% visible
METAR KLCG 201815Z AUTO 24009KT 10SM SCT019 BKN035 OVC110 15/12 A2970 RMK AO2 T01510122
Pressure 29.70 in
Visibility 10.0 miles
Clouds Scattered Clouds 1900 ft
Mostly Cloudy 3500 ft
Overcast 11000 ft
Dew Point 54 °F
Humidity 83%
Rainfall 0.00 in
Snow Depth Not available.
7:16 AM 6:07 PM
Waning Crescent, 32% visible
METAR KLCG 201815Z AUTO 24009KT 10SM SCT019 BKN035 OVC110 15/12 A2970 RMK AO2 T01510122

Get Your Daily Forecast Email!

Thanks for signing up!

Be on the lookout for a verification email in your inbox.

You'll start receiving the daily forecast at 8 AM.

×

10-Day Weather Forecast

Almanac

Astronomy

Feb. 20, 2017 Rise Set
Actual Time
Civil Twilight
Nautical Twilight
Astronomical Twilight
Moon
Length of Visible Light
Length of Day
Tomorrow will be .
, % of the Moon is Illuminated

Today's Extremes

State Highs State Lows

Community

WunderPhotos

Upload Photos

1,962,540 photos uploaded!

WunderBlog® & News

Nearby

Air Quality

  Air Quality AQ Index Pollutant
Not available.

Snow Depth

Station Depth Elevation

Earthquake Activity

City Distance Mag. Time & Date
Minimum magnitude displayed is 2.5.

Coastal Water Temperatures

Place Temperature

Stations

Nearby Weather Stations

Station Location Temp. Windchill Dew Point Humidity Wind Precip. Elev Updated Type
                   

Watches & Warnings

There are currently no watches in effect.